sensor_id;sensor_type;location;lat;lon;timestamp;P1;durP1;ratioP1;P2;durP2;ratioP2
43226;SDS011;28839;52.404;9.808;2023-08-30T00:00:01;5.33;;;4.83;;
43226;SDS011;28839;52.404;9.808;2023-08-30T00:06:55;7.85;;;4.90;;
43226;SDS011;28839;52.404;9.808;2023-08-30T00:13:49;6.47;;;4.43;;
43226;SDS011;28839;52.404;9.808;2023-08-30T00:20:44;6.10;;;5.43;;
43226;SDS011;28839;52.404;9.808;2023-08-30T00:27:38;6.35;;;4.53;;
43226;SDS011;28839;52.404;9.808;2023-08-30T00:34:32;6.03;;;5.13;;
43226;SDS011;28839;52.404;9.808;2023-08-30T00:41:27;6.43;;;5.23;;
43226;SDS011;28839;52.404;9.808;2023-08-30T00:48:21;6.60;;;5.12;;
43226;SDS011;28839;52.404;9.808;2023-08-30T00:55:15;4.53;;;4.12;;
43226;SDS011;28839;52.404;9.808;2023-08-30T01:02:10;5.00;;;4.47;;
43226;SDS011;28839;52.404;9.808;2023-08-30T01:09:05;5.62;;;5.07;;
43226;SDS011;28839;52.404;9.808;2023-08-30T01:16:01;5.72;;;4.95;;
43226;SDS011;28839;52.404;9.808;2023-08-30T01:22:59;6.28;;;5.53;;
43226;SDS011;28839;52.404;9.808;2023-08-30T01:29:59;7.28;;;5.20;;
43226;SDS011;28839;52.404;9.808;2023-08-30T01:36:54;5.82;;;4.72;;
43226;SDS011;28839;52.404;9.808;2023-08-30T01:43:48;6.07;;;5.10;;
43226;SDS011;28839;52.404;9.808;2023-08-30T01:50:46;9.35;;;5.75;;
43226;SDS011;28839;52.404;9.808;2023-08-30T01:57:40;8.75;;;5.37;;
43226;SDS011;28839;52.404;9.808;2023-08-30T02:04:34;6.47;;;4.97;;
43226;SDS011;28839;52.404;9.808;2023-08-30T02:11:29;5.63;;;5.10;;
43226;SDS011;28839;52.404;9.808;2023-08-30T02:18:27;6.20;;;5.20;;
43226;SDS011;28839;52.404;9.808;2023-08-30T02:25:21;7.07;;;4.93;;
43226;SDS011;28839;52.404;9.808;2023-08-30T02:32:17;5.22;;;4.70;;
43226;SDS011;28839;52.404;9.808;2023-08-30T02:39:13;6.80;;;5.47;;
43226;SDS011;28839;52.404;9.808;2023-08-30T02:46:08;6.37;;;5.12;;
43226;SDS011;28839;52.404;9.808;2023-08-30T02:53:03;5.20;;;4.53;;
43226;SDS011;28839;52.404;9.808;2023-08-30T03:00:00;5.90;;;5.30;;
43226;SDS011;28839;52.404;9.808;2023-08-30T03:06:57;6.82;;;5.18;;
43226;SDS011;28839;52.404;9.808;2023-08-30T03:13:54;7.20;;;5.60;;
43226;SDS011;28839;52.404;9.808;2023-08-30T03:20:48;6.53;;;5.93;;
43226;SDS011;28839;52.404;9.808;2023-08-30T03:27:44;7.22;;;5.40;;
43226;SDS011;28839;52.404;9.808;2023-08-30T03:34:39;7.00;;;6.30;;
43226;SDS011;28839;52.404;9.808;2023-08-30T03:41:33;6.75;;;6.15;;
43226;SDS011;28839;52.404;9.808;2023-08-30T03:48:27;7.07;;;6.40;;
43226;SDS011;28839;52.404;9.808;2023-08-30T03:55:22;7.53;;;6.83;;
43226;SDS011;28839;52.404;9.808;2023-08-30T04:02:16;14.00;;;7.47;;
43226;SDS011;28839;52.404;9.808;2023-08-30T04:09:09;7.60;;;6.90;;
43226;SDS011;28839;52.404;9.808;2023-08-30T04:16:05;8.57;;;7.40;;
43226;SDS011;28839;52.404;9.808;2023-08-30T04:22:58;12.95;;;7.87;;
43226;SDS011;28839;52.404;9.808;2023-08-30T04:36:48;9.43;;;8.00;;
43226;SDS011;28839;52.404;9.808;2023-08-30T04:43:42;10.45;;;9.43;;
43226;SDS011;28839;52.404;9.808;2023-08-30T04:50:36;9.97;;;8.97;;
43226;SDS011;28839;52.404;9.808;2023-08-30T04:57:31;9.37;;;8.17;;
43226;SDS011;28839;52.404;9.808;2023-08-30T05:04:25;9.75;;;8.77;;
43226;SDS011;28839;52.404;9.808;2023-08-30T05:11:19;11.33;;;10.13;;
43226;SDS011;28839;52.404;9.808;2023-08-30T05:18:14;11.80;;;9.60;;
43226;SDS011;28839;52.404;9.808;2023-08-30T05:25:08;11.10;;;8.52;;
43226;SDS011;28839;52.404;9.808;2023-08-30T05:32:02;9.77;;;8.87;;
43226;SDS011;28839;52.404;9.808;2023-08-30T05:38:57;8.63;;;7.83;;
43226;SDS011;28839;52.404;9.808;2023-08-30T05:45:51;8.52;;;7.62;;
43226;SDS011;28839;52.404;9.808;2023-08-30T05:52:45;14.70;;;8.00;;
43226;SDS011;28839;52.404;9.808;2023-08-30T05:59:40;10.80;;;6.60;;
43226;SDS011;28839;52.404;9.808;2023-08-30T06:06:33;8.23;;;6.18;;
43226;SDS011;28839;52.404;9.808;2023-08-30T06:13:27;7.47;;;6.67;;
43226;SDS011;28839;52.404;9.808;2023-08-30T06:20:22;32.13;;;15.60;;
43226;SDS011;28839;52.404;9.808;2023-08-30T06:27:16;7.62;;;6.82;;
43226;SDS011;28839;52.404;9.808;2023-08-30T06:34:10;9.87;;;6.37;;
43226;SDS011;28839;52.404;9.808;2023-08-30T06:41:05;11.33;;;6.30;;
43226;SDS011;28839;52.404;9.808;2023-08-30T06:47:59;7.75;;;6.53;;
43226;SDS011;28839;52.404;9.808;2023-08-30T06:54:53;9.40;;;6.67;;
43226;SDS011;28839;52.404;9.808;2023-08-30T07:01:48;7.83;;;6.27;;
43226;SDS011;28839;52.404;9.808;2023-08-30T07:08:41;6.60;;;6.00;;
43226;SDS011;28839;52.404;9.808;2023-08-30T07:15:35;7.60;;;6.57;;
43226;SDS011;28839;52.404;9.808;2023-08-30T07:22:30;7.00;;;6.30;;
43226;SDS011;28839;52.404;9.808;2023-08-30T07:29:24;8.35;;;7.55;;
43226;SDS011;28839;52.404;9.808;2023-08-30T07:36:18;8.47;;;6.80;;
43226;SDS011;28839;52.404;9.808;2023-08-30T07:43:13;9.73;;;7.77;;
43226;SDS011;28839;52.404;9.808;2023-08-30T07:50:07;11.75;;;8.95;;
43226;SDS011;28839;52.404;9.808;2023-08-30T08:03:57;9.83;;;7.77;;
43226;SDS011;28839;52.404;9.808;2023-08-30T08:10:51;12.93;;;8.10;;
43226;SDS011;28839;52.404;9.808;2023-08-30T08:17:44;9.73;;;7.82;;
43226;SDS011;28839;52.404;9.808;2023-08-30T08:24:40;11.18;;;7.15;;
43226;SDS011;28839;52.404;9.808;2023-08-30T08:31:35;10.80;;;7.28;;
43226;SDS011;28839;52.404;9.808;2023-08-30T08:38:29;9.60;;;7.35;;
43226;SDS011;28839;52.404;9.808;2023-08-30T08:45:24;11.23;;;10.07;;
43226;SDS011;28839;52.404;9.808;2023-08-30T08:52:18;11.20;;;9.13;;
43226;SDS011;28839;52.404;9.808;2023-08-30T08:59:12;10.38;;;8.95;;
43226;SDS011;28839;52.404;9.808;2023-08-30T09:06:09;12.20;;;10.43;;
43226;SDS011;28839;52.404;9.808;2023-08-30T09:13:03;14.75;;;11.48;;
43226;SDS011;28839;52.404;9.808;2023-08-30T09:20:04;12.52;;;11.35;;
43226;SDS011;28839;52.404;9.808;2023-08-30T09:27:00;13.50;;;12.02;;
43226;SDS011;28839;52.404;9.808;2023-08-30T09:33:57;14.65;;;12.37;;
43226;SDS011;28839;52.404;9.808;2023-08-30T09:41:03;13.50;;;11.57;;
43226;SDS011;28839;52.404;9.808;2023-08-30T09:48:00;13.52;;;12.15;;
43226;SDS011;28839;52.404;9.808;2023-08-30T09:54:55;15.52;;;13.15;;
43226;SDS011;28839;52.404;9.808;2023-08-30T10:01:50;14.57;;;12.55;;
43226;SDS011;28839;52.404;9.808;2023-08-30T10:15:43;15.32;;;13.73;;
43226;SDS011;28839;52.404;9.808;2023-08-30T10:22:42;15.32;;;13.75;;
43226;SDS011;28839;52.404;9.808;2023-08-30T10:29:41;15.38;;;13.82;;
43226;SDS011;28839;52.404;9.808;2023-08-30T10:36:40;15.13;;;12.52;;
43226;SDS011;28839;52.404;9.808;2023-08-30T10:43:35;14.35;;;11.73;;
43226;SDS011;28839;52.404;9.808;2023-08-30T10:50:31;12.95;;;11.65;;
43226;SDS011;28839;52.404;9.808;2023-08-30T10:57:26;14.45;;;13.05;;
43226;SDS011;28839;52.404;9.808;2023-08-30T11:04:20;18.10;;;11.00;;
43226;SDS011;28839;52.404;9.808;2023-08-30T11:11:16;12.13;;;10.88;;
43226;SDS011;28839;52.404;9.808;2023-08-30T11:18:10;15.85;;;10.88;;
43226;SDS011;28839;52.404;9.808;2023-08-30T11:25:04;13.93;;;12.48;;
43226;SDS011;28839;52.404;9.808;2023-08-30T11:32:02;15.50;;;12.88;;
43226;SDS011;28839;52.404;9.808;2023-08-30T11:38:56;14.23;;;12.52;;
43226;SDS011;28839;52.404;9.808;2023-08-30T11:45:55;11.70;;;10.50;;
43226;SDS011;28839;52.404;9.808;2023-08-30T11:52:51;10.70;;;8.75;;
43226;SDS011;28839;52.404;9.808;2023-08-30T11:59:47;8.32;;;7.20;;
43226;SDS011;28839;52.404;9.808;2023-08-30T12:06:42;8.52;;;6.07;;
43226;SDS011;28839;52.404;9.808;2023-08-30T12:13:37;8.45;;;6.90;;
43226;SDS011;28839;52.404;9.808;2023-08-30T12:20:31;7.70;;;6.12;;
43226;SDS011;28839;52.404;9.808;2023-08-30T12:27:25;5.05;;;4.55;;
43226;SDS011;28839;52.404;9.808;2023-08-30T12:34:20;7.05;;;4.90;;
43226;SDS011;28839;52.404;9.808;2023-08-30T12:41:14;4.97;;;4.07;;
43226;SDS011;28839;52.404;9.808;2023-08-30T12:48:09;5.68;;;5.05;;
43226;SDS011;28839;52.404;9.808;2023-08-30T12:55:06;7.05;;;4.78;;
43226;SDS011;28839;52.404;9.808;2023-08-30T13:02:00;10.48;;;5.12;;
43226;SDS011;28839;52.404;9.808;2023-08-30T13:15:49;7.22;;;6.53;;
43226;SDS011;28839;52.404;9.808;2023-08-30T13:22:43;4.45;;;4.03;;
43226;SDS011;28839;52.404;9.808;2023-08-30T13:36:32;7.62;;;6.22;;
43226;SDS011;28839;52.404;9.808;2023-08-30T13:43:26;7.22;;;5.18;;
43226;SDS011;28839;52.404;9.808;2023-08-30T13:50:19;7.55;;;4.87;;
43226;SDS011;28839;52.404;9.808;2023-08-30T13:57:14;8.27;;;4.82;;
43226;SDS011;28839;52.404;9.808;2023-08-30T14:04:09;6.35;;;4.65;;
43226;SDS011;28839;52.404;9.808;2023-08-30T14:11:02;6.47;;;5.00;;
43226;SDS011;28839;52.404;9.808;2023-08-30T14:24:54;7.07;;;5.10;;
43226;SDS011;28839;52.404;9.808;2023-08-30T14:31:48;8.52;;;4.95;;
43226;SDS011;28839;52.404;9.808;2023-08-30T14:38:43;10.13;;;4.37;;
43226;SDS011;28839;52.404;9.808;2023-08-30T14:45:37;4.72;;;4.32;;
43226;SDS011;28839;52.404;9.808;2023-08-30T14:52:31;7.95;;;5.07;;
43226;SDS011;28839;52.404;9.808;2023-08-30T15:06:19;6.62;;;4.97;;
43226;SDS011;28839;52.404;9.808;2023-08-30T15:20:09;10.25;;;8.27;;
43226;SDS011;28839;52.404;9.808;2023-08-30T15:27:03;10.20;;;9.15;;
43226;SDS011;28839;52.404;9.808;2023-08-30T15:33:57;10.85;;;9.10;;
43226;SDS011;28839;52.404;9.808;2023-08-30T15:40:53;9.80;;;8.80;;
43226;SDS011;28839;52.404;9.808;2023-08-30T15:47:47;11.52;;;10.18;;
43226;SDS011;28839;52.404;9.808;2023-08-30T15:54:41;14.18;;;12.25;;
43226;SDS011;28839;52.404;9.808;2023-08-30T16:01:36;16.25;;;14.73;;
43226;SDS011;28839;52.404;9.808;2023-08-30T16:08:31;26.65;;;24.63;;
43226;SDS011;28839;52.404;9.808;2023-08-30T16:15:25;40.95;;;37.85;;
43226;SDS011;28839;52.404;9.808;2023-08-30T16:22:21;17.27;;;15.57;;
43226;SDS011;28839;52.404;9.808;2023-08-30T16:29:15;22.10;;;18.05;;
43226;SDS011;28839;52.404;9.808;2023-08-30T16:36:08;55.05;;;51.50;;
43226;SDS011;28839;52.404;9.808;2023-08-30T16:43:04;20.93;;;18.73;;
43226;SDS011;28839;52.404;9.808;2023-08-30T16:49:58;16.70;;;15.05;;
43226;SDS011;28839;52.404;9.808;2023-08-30T16:56:51;24.87;;;15.60;;
43226;SDS011;28839;52.404;9.808;2023-08-30T17:03:47;12.32;;;11.00;;
43226;SDS011;28839;52.404;9.808;2023-08-30T17:10:41;11.52;;;10.15;;
43226;SDS011;28839;52.404;9.808;2023-08-30T17:17:35;12.80;;;10.77;;
43226;SDS011;28839;52.404;9.808;2023-08-30T17:24:30;15.90;;;11.20;;
43226;SDS011;28839;52.404;9.808;2023-08-30T17:31:28;14.75;;;12.37;;
43226;SDS011;28839;52.404;9.808;2023-08-30T17:38:24;13.30;;;10.77;;
43226;SDS011;28839;52.404;9.808;2023-08-30T17:45:19;13.97;;;11.93;;
43226;SDS011;28839;52.404;9.808;2023-08-30T17:52:15;13.80;;;11.68;;
43226;SDS011;28839;52.404;9.808;2023-08-30T17:59:09;13.07;;;11.80;;
43226;SDS011;28839;52.404;9.808;2023-08-30T18:06:05;14.27;;;10.77;;
43226;SDS011;28839;52.404;9.808;2023-08-30T18:13:04;15.00;;;11.85;;
43226;SDS011;28839;52.404;9.808;2023-08-30T18:19:58;12.20;;;10.93;;
43226;SDS011;28839;52.404;9.808;2023-08-30T18:26:53;13.83;;;9.97;;
43226;SDS011;28839;52.404;9.808;2023-08-30T18:33:48;8.70;;;7.78;;
43226;SDS011;28839;52.404;9.808;2023-08-30T18:40:41;8.03;;;6.97;;
43226;SDS011;28839;52.404;9.808;2023-08-30T18:47:37;7.63;;;6.33;;
43226;SDS011;28839;52.404;9.808;2023-08-30T18:54:30;7.05;;;6.05;;
43226;SDS011;28839;52.404;9.808;2023-08-30T19:01:24;7.43;;;4.67;;
43226;SDS011;28839;52.404;9.808;2023-08-30T19:08:24;8.10;;;5.37;;
43226;SDS011;28839;52.404;9.808;2023-08-30T19:15:17;7.90;;;5.15;;
43226;SDS011;28839;52.404;9.808;2023-08-30T19:22:11;4.77;;;4.17;;
43226;SDS011;28839;52.404;9.808;2023-08-30T19:29:09;5.18;;;4.68;;
43226;SDS011;28839;52.404;9.808;2023-08-30T19:36:03;5.47;;;4.10;;
43226;SDS011;28839;52.404;9.808;2023-08-30T19:42:57;5.05;;;4.55;;
43226;SDS011;28839;52.404;9.808;2023-08-30T19:49:53;5.87;;;4.97;;
43226;SDS011;28839;52.404;9.808;2023-08-30T19:56:46;8.48;;;5.53;;
43226;SDS011;28839;52.404;9.808;2023-08-30T20:03:40;7.83;;;6.00;;
43226;SDS011;28839;52.404;9.808;2023-08-30T20:10:35;7.27;;;6.10;;
43226;SDS011;28839;52.404;9.808;2023-08-30T20:17:29;7.85;;;5.85;;
43226;SDS011;28839;52.404;9.808;2023-08-30T20:24:23;7.87;;;6.53;;
43226;SDS011;28839;52.404;9.808;2023-08-30T20:31:19;8.43;;;7.45;;
43226;SDS011;28839;52.404;9.808;2023-08-30T20:38:13;8.73;;;7.93;;
43226;SDS011;28839;52.404;9.808;2023-08-30T20:45:08;10.15;;;7.95;;
43226;SDS011;28839;52.404;9.808;2023-08-30T20:52:04;10.50;;;9.18;;
43226;SDS011;28839;52.404;9.808;2023-08-30T20:58:59;11.00;;;9.90;;
43226;SDS011;28839;52.404;9.808;2023-08-30T21:05:53;12.00;;;10.73;;
43226;SDS011;28839;52.404;9.808;2023-08-30T21:12:48;11.50;;;10.30;;
43226;SDS011;28839;52.404;9.808;2023-08-30T21:19:42;13.60;;;12.20;;
43226;SDS011;28839;52.404;9.808;2023-08-30T21:26:36;12.67;;;11.47;;
43226;SDS011;28839;52.404;9.808;2023-08-30T21:33:31;15.07;;;13.57;;
43226;SDS011;28839;52.404;9.808;2023-08-30T21:40:25;16.50;;;13.52;;
43226;SDS011;28839;52.404;9.808;2023-08-30T21:47:19;19.40;;;13.63;;
43226;SDS011;28839;52.404;9.808;2023-08-30T21:54:14;14.47;;;13.07;;
43226;SDS011;28839;52.404;9.808;2023-08-30T22:01:08;13.07;;;11.50;;
43226;SDS011;28839;52.404;9.808;2023-08-30T22:08:02;12.37;;;10.23;;
43226;SDS011;28839;52.404;9.808;2023-08-30T22:14:58;13.38;;;11.70;;
43226;SDS011;28839;52.404;9.808;2023-08-30T22:21:52;13.98;;;12.37;;
43226;SDS011;28839;52.404;9.808;2023-08-30T22:28:48;15.63;;;13.13;;
43226;SDS011;28839;52.404;9.808;2023-08-30T22:35:43;18.63;;;11.47;;
43226;SDS011;28839;52.404;9.808;2023-08-30T22:42:37;16.20;;;12.27;;
43226;SDS011;28839;52.404;9.808;2023-08-30T22:49:32;13.80;;;11.77;;
43226;SDS011;28839;52.404;9.808;2023-08-30T22:56:27;15.63;;;12.30;;
43226;SDS011;28839;52.404;9.808;2023-08-30T23:03:21;13.02;;;11.60;;
43226;SDS011;28839;52.404;9.808;2023-08-30T23:10:15;18.98;;;13.32;;
43226;SDS011;28839;52.404;9.808;2023-08-30T23:17:10;15.90;;;13.97;;
43226;SDS011;28839;52.404;9.808;2023-08-30T23:24:04;17.58;;;14.70;;
43226;SDS011;28839;52.404;9.808;2023-08-30T23:30:59;16.55;;;14.38;;
43226;SDS011;28839;52.404;9.808;2023-08-30T23:37:57;17.58;;;14.90;;
43226;SDS011;28839;52.404;9.808;2023-08-30T23:44:52;19.35;;;17.08;;
43226;SDS011;28839;52.404;9.808;2023-08-30T23:51:45;20.47;;;17.77;;
43226;SDS011;28839;52.404;9.808;2023-08-30T23:58:41;23.17;;;17.93;;
